Pagrindinis puslapis
METAR-TAF:

METAR-TAF

Oro uostai :

Sarh, Čadas

platuma: 09-09N, ilguma: 018-23E, Aukštis: 365 m

Dabartinis oras

Ataskaita buvo paskelbta 1 valandą ir 2 minutes, ne 01:00 UTC
Ramus vėjas
Temperatūra 22°C
Drėgmė 25%
Slėgis 1014 hPa
Matomumas 10 km arba daugiau
nėra debesų žemiau 1500 m ir nėra kamuolinių lietaus debesų

METAR: FTTA 210100Z 00000KT CAVOK 22/01 Q1014

Laikas: 03:02 (02:02 UTC)


TAF: trūkstamas

Orai ataskaitas ir orų prognozės (METAR, TAF).

turimą stotys yra geltonos ir raudonos taškus žemėlapyje.

Perkelti pele per norėdami pamatyti stoties vardą.

Tada spustelėkite, norėdami matyti oro stebėjimo ir prognozės.

Norėdami pakeisti žemėlapį: spustelėkite ant žalios mygtukų su juodo kryžiaus žemyn,; žalią mygtuką su brūkšneliu, jei norite nutolinti; arba žalių rodyklių gretimoms žemėlapius.


METAR-TAF: